Time;durP1;ratioP1;P1;durP2;ratioP2;P2;SDS_P1;SDS_P2;PMS_P1;PMS_P2;Temp;Humidity;BMP_temperature;BMP_pressure;BME280_temperature;BME280_humidity;BME280_pressure;Samples;Min_cycle;Max_cycle;Signal;HPM_P1;HPM_P2
2023/03/13 00:00:24;;;;;;;23.85;4.38;;;;;;;10.30;100.00;100303.47;5231965;28;20381;-74
2023/03/13 00:02:54;;;;;;;25.42;4.68;;;;;;;10.24;100.00;100297.00;5244181;28;20030;-75
2023/03/13 00:05:25;;;;;;;29.35;4.30;;;;;;;10.25;100.00;100282.56;5243467;28;20074;-74
2023/03/13 00:07:55;;;;;;;28.27;5.13;;;;;;;10.24;100.00;100280.03;5240675;28;20390;-74
2023/03/13 00:10:26;;;;;;;16.65;3.97;;;;;;;10.20;100.00;100276.03;5243492;28;20028;-74
2023/03/13 00:12:56;;;;;;;22.75;4.57;;;;;;;10.18;100.00;100275.38;5243880;28;20109;-74
2023/03/13 00:15:27;;;;;;;25.30;5.07;;;;;;;10.17;100.00;100277.22;5244016;28;20032;-74
2023/03/13 00:17:57;;;;;;;23.30;3.97;;;;;;;10.27;100.00;100268.97;5243035;28;20039;-75
2023/03/13 00:20:28;;;;;;;31.50;4.20;;;;;;;10.26;100.00;100264.63;5243942;28;20028;-75
2023/03/13 00:22:59;;;;;;;23.92;4.05;;;;;;;10.27;100.00;100260.94;5243866;28;20021;-74
2023/03/13 00:25:29;;;;;;;30.60;5.70;;;;;;;10.29;100.00;100261.56;5243968;28;20029;-74
2023/03/13 00:28:00;;;;;;;23.58;4.63;;;;;;;10.34;100.00;100251.16;5241764;28;20493;-75
2023/03/13 00:30:30;;;;;;;22.60;4.13;;;;;;;10.37;100.00;100243.59;5236133;28;20016;-74
2023/03/13 00:33:01;;;;;;;20.23;3.85;;;;;;;10.43;100.00;100233.16;5244006;28;20078;-74
2023/03/13 00:35:31;;;;;;;17.38;5.40;;;;;;;10.47;100.00;100223.75;5243547;28;20028;-75
2023/03/13 00:38:02;;;;;;;16.30;4.50;;;;;;;10.48;100.00;100217.34;5225513;28;20085;-74
2023/03/13 00:40:32;;;;;;;25.15;4.22;;;;;;;10.51;100.00;100209.78;5240151;28;20036;-75
2023/03/13 00:43:02;;;;;;;20.02;4.15;;;;;;;10.58;100.00;100212.56;5243428;28;20021;-74
2023/03/13 00:45:33;;;;;;;14.70;3.22;;;;;;;10.61;100.00;100202.31;5243403;28;20036;-74
2023/03/13 00:48:04;;;;;;;19.88;3.33;;;;;;;10.63;100.00;100208.31;5243235;28;20111;-74
2023/03/13 00:50:34;;;;;;;13.25;3.42;;;;;;;10.61;100.00;100217.59;5243071;28;20032;-75
2023/03/13 00:53:04;;;;;;;13.50;3.95;;;;;;;10.64;100.00;100209.16;5231380;28;20029;-74
2023/03/13 00:55:35;;;;;;;16.25;3.42;;;;;;;10.60;100.00;100192.63;5223938;28;20032;-75
2023/03/13 00:58:05;;;;;;;16.15;3.30;;;;;;;10.55;100.00;100194.19;5242731;28;20385;-74
2023/03/13 01:00:36;;;;;;;16.77;3.72;;;;;;;10.54;100.00;100197.84;5229787;28;20424;-74
2023/03/13 01:03:06;;;;;;;11.35;3.40;;;;;;;10.54;100.00;100195.16;5243401;28;20384;-75
2023/03/13 01:05:37;;;;;;;11.80;3.33;;;;;;;10.55;100.00;100181.59;5243363;28;20397;-75
2023/03/13 01:08:07;;;;;;;10.15;2.92;;;;;;;10.57;100.00;100181.41;5242750;28;20051;-75
2023/03/13 01:10:38;;;;;;;17.10;3.47;;;;;;;10.57;100.00;100176.03;5243897;28;20024;-74
2023/03/13 01:13:08;;;;;;;11.00;2.97;;;;;;;10.58;100.00;100175.84;5247061;28;20024;-74
2023/03/13 01:15:39;;;;;;;13.68;3.20;;;;;;;10.63;100.00;100178.81;5247269;28;20028;-75
2023/03/13 01:18:09;;;;;;;9.30;3.22;;;;;;;10.62;100.00;100171.78;5228481;28;20028;-74
2023/03/13 01:20:40;;;;;;;6.28;2.60;;;;;;;10.66;100.00;100156.16;5228835;28;20554;-74
2023/03/13 01:23:10;;;;;;;9.77;2.80;;;;;;;10.67;100.00;100173.94;5246683;28;20104;-74
2023/03/13 01:25:41;;;;;;;8.65;2.55;;;;;;;10.71;100.00;100155.63;5228988;28;20032;-74
2023/03/13 01:28:11;;;;;;;8.95;3.08;;;;;;;10.76;100.00;100156.75;5243319;28;20125;-74
2023/03/13 01:30:42;;;;;;;15.00;3.38;;;;;;;10.77;100.00;100168.28;5240621;28;20112;-74
2023/03/13 01:33:12;;;;;;;12.80;3.47;;;;;;;10.82;100.00;100157.84;5246494;28;20016;-74
2023/03/13 01:35:43;;;;;;;10.98;3.40;;;;;;;10.87;100.00;100152.75;5246634;28;20020;-74
2023/03/13 01:38:14;;;;;;;8.90;3.53;;;;;;;10.85;100.00;100144.06;5246189;28;20492;-74
2023/03/13 01:40:46;;;;;;;11.60;3.97;;;;;;;10.87;100.00;100150.91;5242559;28;20056;-75
2023/03/13 01:43:33;;;;;;;12.68;4.57;;;;;;;10.96;100.00;100140.09;5246257;28;20438;-74
2023/03/13 01:46:24;;;;;;;14.70;4.78;;;;;;;10.99;100.00;100132.47;5246463;28;20028;-74
2023/03/13 01:49:02;;;;;;;15.57;5.40;;;;;;;11.01;100.00;100127.78;5246187;28;20054;-74
2023/03/13 01:51:37;;;;;;;13.15;5.38;;;;;;;11.04;100.00;100110.44;5246205;28;20028;-74
2023/03/13 01:54:15;;;;;;;14.18;6.15;;;;;;;11.11;100.00;100108.69;5232704;28;20392;-74
2023/03/13 01:57:03;;;;;;;13.82;5.82;;;;;;;11.08;100.00;100096.47;5245753;28;20028;-74
2023/03/13 01:59:40;;;;;;;14.30;6.28;;;;;;;11.11;100.00;100077.31;5235564;28;20107;-74
2023/03/13 02:02:13;;;;;;;15.50;6.40;;;;;;;11.10;100.00;100064.91;5245865;28;20388;-74
2023/03/13 02:04:49;;;;;;;16.92;7.07;;;;;;;11.09;100.00;100059.72;5246835;28;20077;-74
2023/03/13 02:07:27;;;;;;;19.15;6.65;;;;;;;11.06;100.00;100071.69;5246377;28;20033;-74
2023/03/13 02:09:58;;;;;;;14.63;6.07;;;;;;;11.11;100.00;100065.75;5242119;28;20017;-75
2023/03/13 02:12:33;;;;;;;13.52;6.47;;;;;;;11.12;100.00;100068.22;5246067;28;20485;-74
2023/03/13 02:15:09;;;;;;;12.90;6.00;;;;;;;11.15;100.00;100065.19;5246251;28;20072;-75
2023/03/13 02:17:41;;;;;;;10.15;5.80;;;;;;;11.15;100.00;100058.97;5245287;28;20107;-74
2023/03/13 02:20:14;;;;;;;16.80;5.85;;;;;;;11.13;100.00;100045.72;5245861;28;20059;-74
2023/03/13 02:23:10;;;;;;;15.88;5.78;;;;;;;11.22;100.00;100057.19;5246050;28;20396;-74
2023/03/13 02:25:43;;;;;;;;;;;;;;;11.22;100.00;100048.31;5246645;28;20024;-74
2023/03/13 02:28:19;;;;;;;11.55;5.88;;;;;;;11.24;100.00;100043.56;5242000;28;19948;-74
2023/03/13 02:30:54;;;;;;;10.15;4.85;;;;;;;11.30;100.00;100038.28;5240320;28;20017;-74
2023/03/13 02:33:29;;;;;;;13.27;5.63;;;;;;;11.39;100.00;100041.66;5245901;28;20053;-74
2023/03/13 02:36:01;;;;;;;9.75;4.93;;;;;;;11.45;100.00;100042.78;5245515;28;20024;-74
2023/03/13 02:38:36;;;;;;;8.00;4.97;;;;;;;11.45;100.00;100029.34;5227837;28;20079;-74
2023/03/13 02:41:07;;;;;;;11.48;5.45;;;;;;;11.50;100.00;100030.44;5241393;28;20023;-74
2023/03/13 02:43:38;;;;;;;9.35;4.35;;;;;;;11.56;100.00;100029.66;5245461;28;20020;-74
2023/03/13 02:46:12;;;;;;;10.20;5.00;;;;;;;11.61;100.00;100026.41;5245194;28;20079;-74
2023/03/13 02:48:45;;;;;;;10.32;5.53;;;;;;;11.61;100.00;100029.91;5245397;28;20489;-74
2023/03/13 02:51:20;;;;;;;14.93;5.90;;;;;;;11.69;100.00;100012.81;5245280;28;20405;-74
2023/03/13 02:53:55;;;;;;;9.03;5.33;;;;;;;11.74;100.00;100017.59;5231703;28;20028;-74
2023/03/13 02:56:27;;;;;;;14.93;5.72;;;;;;;11.83;100.00;100024.53;5244602;28;20025;-74
2023/03/13 02:58:58;;;;;;;13.75;5.10;;;;;;;11.92;100.00;100031.44;5239422;28;20175;-74
2023/03/13 03:01:28;;;;;;;13.23;5.22;;;;;;;12.01;100.00;100037.50;5238691;28;20490;-74
2023/03/13 03:03:59;;;;;;;9.95;5.25;;;;;;;12.04;100.00;100037.94;5245118;28;20491;-74
2023/03/13 03:06:30;;;;;;;12.00;4.97;;;;;;;12.11;100.00;100038.00;5244573;28;20111;-74
2023/03/13 03:09:01;;;;;;;8.30;4.63;;;;;;;12.22;100.00;100031.25;5244463;28;20032;-74
2023/03/13 03:11:31;;;;;;;8.82;4.10;;;;;;;12.26;100.00;100041.41;5241278;28;20031;-74
2023/03/13 03:14:02;;;;;;;10.30;4.18;;;;;;;12.28;100.00;100035.84;5245042;28;20071;-75
2023/03/13 03:16:32;;;;;;;11.50;4.68;;;;;;;12.34;100.00;100008.97;5244201;28;20028;-74
2023/03/13 03:19:05;;;;;;;8.40;4.13;;;;;;;12.35;100.00;99986.44;5244687;28;20028;-74
2023/03/13 03:21:36;;;;;;;8.27;4.28;;;;;;;12.41;100.00;100000.97;5226444;28;20031;-75
2023/03/13 03:24:07;;;;;;;9.43;4.10;;;;;;;12.43;100.00;99991.63;5244900;28;20058;-75
2023/03/13 03:26:37;;;;;;;9.80;3.47;;;;;;;12.48;100.00;99991.06;5244356;28;20500;-74
2023/03/13 03:29:09;;;;;;;10.30;3.90;;;;;;;12.48;100.00;100003.66;5235199;28;20075;-74
2023/03/13 03:31:40;;;;;;;8.20;3.25;;;;;;;12.50;100.00;99980.94;5243477;28;20100;-74
2023/03/13 03:34:10;;;;;;;9.48;4.72;;;;;;;12.56;100.00;99979.31;5244430;28;20162;-74
2023/03/13 03:36:41;;;;;;;8.90;3.97;;;;;;;12.58;100.00;99975.38;5244247;28;20107;-75
2023/03/13 03:39:11;;;;;;;9.68;3.22;;;;;;;12.58;100.00;99986.13;5244462;28;20369;-74
2023/03/13 03:41:42;;;;;;;6.85;3.50;;;;;;;12.61;100.00;99980.38;5226301;28;20426;-74
2023/03/13 03:44:12;;;;;;;7.30;3.30;;;;;;;12.64;100.00;99988.00;5244128;28;21215;-75
2023/03/13 03:46:43;;;;;;;8.27;3.38;;;;;;;12.66;100.00;99977.91;5243970;28;20047;-74
2023/03/13 03:49:13;;;;;;;6.70;4.07;;;;;;;12.69;100.00;99977.47;5226723;28;20108;-73
2023/03/13 03:51:44;;;;;;;6.57;2.97;;;;;;;12.72;100.00;99991.56;5243187;28;20025;-74
2023/03/13 03:54:14;;;;;;;6.38;3.15;;;;;;;12.76;100.00;99982.06;5231837;28;20074;-74
2023/03/13 03:56:44;;;;;;;8.18;3.30;;;;;;;12.75;100.00;99977.69;5243283;28;20016;-74
2023/03/13 03:59:15;;;;;;;10.38;4.65;;;;;;;12.75;100.00;99978.56;5236069;28;20047;-75
2023/03/13 04:01:45;;;;;;;5.03;2.63;;;;;;;12.79;100.00;99981.66;5239931;28;20070;-74
2023/03/13 04:04:16;;;;;;;10.95;3.10;;;;;;;12.80;100.00;99978.78;5244721;28;20124;-74
2023/03/13 04:06:46;;;;;;;6.72;2.90;;;;;;;12.81;100.00;99982.31;5243654;28;20028;-74
2023/03/13 04:09:17;;;;;;;5.88;2.80;;;;;;;12.80;100.00;99961.78;5238659;28;20036;-75
2023/03/13 04:11:47;;;;;;;5.60;2.50;;;;;;;12.77;100.00;99957.66;5242070;28;20042;-75
2023/03/13 04:14:18;;;;;;;3.90;2.60;;;;;;;12.77;100.00;99941.50;5244138;28;20108;-74
2023/03/13 04:16:48;;;;;;;10.18;3.10;;;;;;;12.77;100.00;99954.94;5243605;28;20158;-74
2023/03/13 04:19:18;;;;;;;6.45;2.50;;;;;;;12.78;100.00;99948.53;5244118;28;20021;-74
2023/03/13 04:21:49;;;;;;;4.32;2.60;;;;;;;12.80;100.00;99941.09;5243703;28;20032;-74
2023/03/13 04:24:19;;;;;;;8.40;2.65;;;;;;;12.79;100.00;99938.59;5244024;28;20046;-75
2023/03/13 04:26:50;;;;;;;9.18;2.75;;;;;;;12.82;100.00;99946.28;5243544;28;20028;-74
2023/03/13 04:29:20;;;;;;;8.88;3.00;;;;;;;12.89;100.00;99949.81;5234367;28;20036;-74
2023/03/13 04:31:51;;;;;;;7.93;3.05;;;;;;;12.90;100.00;99949.63;5243853;28;20027;-74
2023/03/13 04:34:21;;;;;;;8.50;2.47;;;;;;;12.93;100.00;99948.38;5243316;28;20036;-74
2023/03/13 04:36:52;;;;;;;5.57;3.05;;;;;;;12.88;100.00;99967.81;5243487;28;20624;-75
2023/03/13 04:39:24;;;;;;;5.93;2.58;;;;;;;12.96;100.00;99969.50;5225924;28;20392;-74
2023/03/13 04:41:55;;;;;;;8.02;2.80;;;;;;;12.91;100.00;99964.72;5241336;28;20082;-74
2023/03/13 04:44:25;;;;;;;7.65;2.70;;;;;;;12.91;100.00;99963.91;5247853;28;20068;-74
2023/03/13 04:46:56;;;;;;;7.43;2.72;;;;;;;12.89;100.00;99960.56;5246831;28;20039;-74
2023/03/13 04:49:26;;;;;;;11.73;3.05;;;;;;;12.92;100.00;99960.19;5247939;28;20130;-74
2023/03/13 04:51:57;;;;;;;6.20;2.85;;;;;;;12.92;100.00;99936.78;5247512;28;20039;-75
2023/03/13 04:54:27;;;;;;;6.93;2.42;;;;;;;12.91;100.00;99958.53;5247979;28;20119;-75
2023/03/13 04:56:58;;;;;;;6.80;2.60;;;;;;;12.89;100.00;99956.00;5247521;28;20024;-74
2023/03/13 04:59:28;;;;;;;6.28;2.50;;;;;;;12.87;100.00;99963.47;5237382;28;20021;-75
2023/03/13 05:01:59;;;;;;;4.55;3.10;;;;;;;12.88;100.00;99954.34;5245012;28;20027;-74
2023/03/13 05:04:29;;;;;;;15.07;3.22;;;;;;;12.99;100.00;99958.31;5247675;28;20020;-75
2023/03/13 05:07:00;;;;;;;6.22;2.63;;;;;;;13.01;100.00;99953.56;5247021;28;20035;-74
2023/03/13 05:09:30;;;;;;;10.32;2.35;;;;;;;13.03;100.00;99950.66;5240245;28;20033;-74
2023/03/13 05:12:01;;;;;;;5.32;2.58;;;;;;;13.00;100.00;99935.75;5247009;28;20100;-74
2023/03/13 05:14:31;;;;;;;8.07;2.78;;;;;;;13.00;100.00;99935.75;5247168;28;20025;-74
2023/03/13 05:17:01;;;;;;;8.38;2.40;;;;;;;13.03;100.00;99934.50;5246718;28;20387;-74
2023/03/13 05:19:32;;;;;;;4.88;2.67;;;;;;;12.99;100.00;99928.69;5229410;28;20554;-74
2023/03/13 05:22:03;;;;;;;8.48;2.60;;;;;;;12.98;100.00;99935.13;5247033;28;20052;-74
2023/03/13 05:24:33;;;;;;;9.85;2.72;;;;;;;13.05;100.00;99922.53;5246908;28;20171;-74
2023/03/13 05:27:04;;;;;;;9.95;2.28;;;;;;;12.99;100.00;99917.09;5246663;28;20025;-74
2023/03/13 05:29:34;;;;;;;8.35;2.80;;;;;;;13.00;100.00;99919.59;5218965;28;20021;-74
2023/03/13 05:32:05;;;;;;;11.80;2.75;;;;;;;12.99;100.00;99904.47;5229283;28;20082;-74
2023/03/13 05:34:35;;;;;;;6.45;2.65;;;;;;;12.93;100.00;99911.50;5211933;28;20586;-74
2023/03/13 05:37:06;;;;;;;10.50;2.60;;;;;;;12.95;100.00;99912.16;5246184;28;20104;-73
2023/03/13 05:39:36;;;;;;;11.90;2.92;;;;;;;12.98;100.00;99915.44;5246925;28;20028;-74
2023/03/13 05:42:07;;;;;;;9.30;3.58;;;;;;;13.01;100.00;99907.81;5243265;28;20024;-74
2023/03/13 05:44:37;;;;;;;11.18;3.15;;;;;;;13.06;100.00;99886.47;5247550;28;20119;-75
2023/03/13 05:47:08;;;;;;;8.25;2.67;;;;;;;13.08;100.00;99894.34;5245636;28;20025;-75
2023/03/13 05:49:39;;;;;;;7.20;2.90;;;;;;;13.04;100.00;99898.47;5246754;28;20067;-75
2023/03/13 05:52:09;;;;;;;10.05;3.55;;;;;;;13.06;100.00;99905.31;5246234;28;20020;-74
2023/03/13 05:54:39;;;;;;;7.72;2.60;;;;;;;13.05;100.00;99902.81;5245737;28;20672;-74
2023/03/13 05:57:10;;;;;;;7.57;2.97;;;;;;;13.04;100.00;99906.56;5227962;28;20020;-74
2023/03/13 05:59:40;;;;;;;11.68;3.05;;;;;;;13.02;100.00;99901.38;5234273;28;20470;-74
2023/03/13 06:02:11;;;;;;;7.97;2.75;;;;;;;13.01;100.00;99893.53;5245602;28;20031;-74
2023/03/13 06:04:41;;;;;;;11.80;2.72;;;;;;;13.00;100.00;99897.22;5246525;28;20020;-74
2023/03/13 06:07:12;;;;;;;16.50;3.38;;;;;;;13.02;100.00;99889.78;5228171;28;20025;-74
2023/03/13 06:09:42;;;;;;;11.57;2.55;;;;;;;13.05;100.00;99873.19;5242337;28;20022;-75
2023/03/13 06:12:13;;;;;;;7.15;2.47;;;;;;;13.08;100.00;99878.19;5227719;28;20032;-75
2023/03/13 06:14:43;;;;;;;8.82;3.08;;;;;;;13.08;100.00;99889.78;5246019;28;20104;-74
2023/03/13 06:17:14;;;;;;;11.23;2.58;;;;;;;13.09;100.00;99877.16;5245819;28;20025;-74
2023/03/13 06:19:46;;;;;;;14.75;3.70;;;;;;;13.12;100.00;99877.56;5245846;28;20081;-75
2023/03/13 06:22:16;;;;;;;9.02;3.05;;;;;;;13.11;100.00;99865.16;5246096;28;20111;-74
2023/03/13 06:24:48;;;;;;;9.82;2.65;;;;;;;13.14;100.00;99867.41;5245448;28;20108;-74
2023/03/13 06:27:18;;;;;;;11.93;2.90;;;;;;;13.13;100.00;99879.22;5245529;28;20059;-74
2023/03/13 06:29:49;;;;;;;16.25;3.35;;;;;;;13.13;100.00;99865.75;5218486;28;20052;-77
2023/03/13 06:32:19;;;;;;;11.80;3.10;;;;;;;13.16;100.00;99881.50;5227826;28;20028;-76
2023/03/13 06:34:51;;;;;;;12.77;2.70;;;;;;;13.13;100.00;99875.69;5227909;28;20027;-77
2023/03/13 06:37:21;;;;;;;10.25;3.17;;;;;;;13.13;100.00;99867.63;5226823;28;20112;-77
2023/03/13 06:39:52;;;;;;;10.05;2.90;;;;;;;13.16;100.00;99880.69;5227742;28;20024;-76
2023/03/13 06:42:22;;;;;;;14.77;3.28;;;;;;;13.19;100.00;99886.47;5223988;28;20032;-76
2023/03/13 06:44:53;;;;;;;17.67;3.33;;;;;;;13.15;100.00;99884.38;5245537;28;20023;-77
2023/03/13 06:47:23;;;;;;;7.88;2.55;;;;;;;13.23;100.00;99889.63;5244688;28;20032;-76
2023/03/13 06:49:53;;;;;;;13.05;2.80;;;;;;;13.25;100.00;99886.72;5245080;28;20396;-76
2023/03/13 06:52:24;;;;;;;13.35;3.20;;;;;;;13.24;100.00;99869.72;5239015;28;20032;-74
2023/03/13 06:54:55;;;;;;;14.18;3.70;;;;;;;13.26;100.00;99874.94;5220233;28;20074;-76
2023/03/13 06:57:25;;;;;;;28.30;3.92;;;;;;;13.28;100.00;99880.91;5244910;28;20024;-77
2023/03/13 06:59:56;;;;;;;14.43;3.00;;;;;;;13.27;100.00;99872.00;5232911;28;20024;-77
2023/03/13 07:02:26;;;;;;;14.80;2.88;;;;;;;13.31;100.00;99884.03;5245292;28;20028;-77
2023/03/13 07:04:57;;;;;;;20.08;3.65;;;;;;;13.27;100.00;99869.31;5244985;28;20465;-78
2023/03/13 07:07:29;;;;;;;14.95;3.95;;;;;;;13.28;100.00;99900.59;5244679;28;20081;-77
2023/03/13 07:09:59;;;;;;;17.75;4.03;;;;;;;13.34;100.00;99882.78;5241749;28;20023;-77
2023/03/13 07:12:30;;;;;;;10.75;2.75;;;;;;;13.37;100.00;99860.81;5243849;28;20020;-77
2023/03/13 07:15:00;;;;;;;8.50;3.20;;;;;;;13.35;100.00;99879.88;5244839;28;20086;-77
2023/03/13 07:17:31;;;;;;;16.77;3.38;;;;;;;13.36;100.00;99886.94;5244680;28;20020;-77
2023/03/13 07:20:04;;;;;;;13.07;3.00;;;;;;;13.41;100.00;99886.31;5219143;28;20024;-77
2023/03/13 07:22:34;;;;;;;14.38;3.25;;;;;;;13.47;100.00;99861.22;5210908;28;20072;-77
2023/03/13 07:25:05;;;;;;;13.20;2.88;;;;;;;13.45;100.00;99884.84;5243602;28;20060;-77
2023/03/13 07:27:37;;;;;;;13.93;3.13;;;;;;;13.42;100.00;99878.00;5243476;28;20046;-77
2023/03/13 07:30:08;;;;;;;14.02;3.17;;;;;;;13.50;100.00;99879.66;5215931;28;20021;-77
2023/03/13 07:32:38;;;;;;;9.90;3.85;;;;;;;13.46;100.00;99875.75;5225398;28;20090;-76
2023/03/13 07:35:09;;;;;;;12.32;2.72;;;;;;;13.50;100.00;99874.25;5225749;28;20032;-77
2023/03/13 07:37:40;;;;;;;8.48;3.47;;;;;;;13.51;100.00;99850.88;5242460;28;20032;-77
2023/03/13 07:40:11;;;;;;;9.55;2.60;;;;;;;13.48;100.00;99877.19;5240240;28;20020;-76
2023/03/13 07:42:41;;;;;;;13.75;3.70;;;;;;;13.48;100.00;99869.09;5242712;28;20028;-77
2023/03/13 07:45:12;;;;;;;10.43;2.92;;;;;;;13.51;100.00;99861.66;5243143;28;20034;-77
2023/03/13 07:47:42;;;;;;;16.73;3.45;;;;;;;13.55;100.00;99868.25;5242756;28;20028;-77
2023/03/13 07:50:13;;;;;;;14.00;3.40;;;;;;;13.63;100.00;99859.97;5241888;28;20696;-77
2023/03/13 07:52:43;;;;;;;12.93;3.28;;;;;;;13.61;100.00;99868.25;5225385;28;20032;-76
2023/03/13 07:55:14;;;;;;;7.82;3.47;;;;;;;13.59;100.00;99870.31;5208370;28;20572;-77
2023/03/13 07:57:44;;;;;;;10.98;2.65;;;;;;;13.56;100.00;99873.44;5224911;28;20033;-78
2023/03/13 08:00:17;;;;;;;11.80;3.25;;;;;;;13.58;100.00;99892.91;5230098;28;20035;-77
2023/03/13 08:02:47;;;;;;;11.43;3.03;;;;;;;13.58;100.00;99874.06;5225029;28;20089;-77
2023/03/13 08:05:18;;;;;;;14.18;3.88;;;;;;;13.64;100.00;99859.75;5243393;28;20024;-77
2023/03/13 08:07:49;;;;;;;11.68;3.30;;;;;;;13.72;100.00;99847.91;5239807;28;20489;-77
2023/03/13 08:10:19;;;;;;;12.73;2.53;;;;;;;13.86;100.00;99865.72;5239939;28;20032;-76
2023/03/13 08:12:50;;;;;;;7.13;2.53;;;;;;;13.93;100.00;99871.09;5245495;28;20024;-77
2023/03/13 08:15:24;;;;;;;9.50;2.83;;;;;;;13.93;100.00;99863.00;5225295;28;20086;-77
2023/03/13 08:17:55;;;;;;;10.98;3.58;;;;;;;14.00;100.00;99869.19;5224158;28;20050;-77
2023/03/13 08:20:26;;;;;;;10.48;2.60;;;;;;;13.99;100.00;99860.28;5224814;28;20028;-78
2023/03/13 08:22:56;;;;;;;12.82;4.82;;;;;;;14.09;100.00;99861.69;5242755;28;20044;-78
2023/03/13 08:25:27;;;;;;;9.73;3.30;;;;;;;14.00;100.00;99878.09;5242304;28;20025;-78
2023/03/13 08:27:57;;;;;;;14.57;8.07;;;;;;;14.02;100.00;99853.63;5241097;28;20021;-77
2023/03/13 08:30:28;;;;;;;8.00;3.03;;;;;;;14.11;100.00;99851.53;5217007;28;20104;-77
2023/03/13 08:32:58;;;;;;;9.60;2.33;;;;;;;14.16;100.00;99839.06;5224748;28;20051;-77
2023/03/13 08:35:29;;;;;;;7.88;2.72;;;;;;;14.21;100.00;99831.16;5242536;28;20405;-78
2023/03/13 08:37:59;;;;;;;7.25;2.47;;;;;;;14.11;100.00;99833.50;5241574;28;20029;-78
2023/03/13 08:40:30;;;;;;;9.05;2.28;;;;;;;14.28;100.00;99846.47;5238866;28;20108;-79
2023/03/13 08:43:00;;;;;;;9.75;2.47;;;;;;;14.27;100.00;99821.38;5242651;28;20103;-79
2023/03/13 08:45:31;;;;;;;5.78;2.33;;;;;;;14.41;100.00;99827.53;5242493;28;20082;-78
2023/03/13 08:48:01;;;;;;;8.95;2.60;;;;;;;14.29;100.00;99843.56;5241981;28;20025;-79
2023/03/13 08:50:32;;;;;;;9.80;2.72;;;;;;;14.31;100.00;99832.53;5223430;28;20032;-79
2023/03/13 08:53:02;;;;;;;6.60;3.40;;;;;;;14.22;100.00;99827.41;5213316;28;20075;-79
2023/03/13 08:55:33;;;;;;;8.70;2.90;;;;;;;14.46;100.00;99825.03;5206317;28;20034;-79
2023/03/13 08:58:03;;;;;;;6.68;2.78;;;;;;;14.75;100.00;99837.09;5242288;28;20028;-79
2023/03/13 09:00:33;;;;;;;4.60;2.70;;;;;;;14.89;100.00;99835.16;5229791;28;20034;-79
2023/03/13 09:03:04;;;;;;;7.32;2.58;;;;;;;14.91;100.00;99824.94;5223735;28;20081;-79
2023/03/13 09:05:36;;;;;;;8.40;2.60;;;;;;;14.82;100.00;99831.69;5243081;28;20028;-79
2023/03/13 09:08:07;;;;;;;7.82;2.53;;;;;;;14.68;100.00;99812.84;5239525;28;20021;-79
2023/03/13 09:10:37;;;;;;;17.25;5.30;;;;;;;14.67;100.00;99824.72;5243087;28;20138;-79
2023/03/13 09:13:08;;;;;;;8.15;2.75;;;;;;;14.60;100.00;99813.09;5244754;28;20157;-79
2023/03/13 09:15:38;;;;;;;7.15;2.03;;;;;;;14.54;100.00;99810.47;5242884;28;20032;-79
2023/03/13 09:18:09;;;;;;;5.97;3.83;;;;;;;14.52;100.00;99816.09;5250646;28;20029;-79
2023/03/13 09:20:42;;;;;;;10.00;2.58;;;;;;;14.57;100.00;99812.75;5242550;28;20067;-78
2023/03/13 09:23:12;;;;;;;6.15;1.98;;;;;;;14.59;100.00;99814.16;5224624;28;20770;-78
2023/03/13 09:25:43;;;;;;;7.57;2.45;;;;;;;14.61;100.00;99808.53;5242156;28;20054;-77
2023/03/13 09:28:14;;;;;;;6.57;2.30;;;;;;;14.63;100.00;99811.88;5239694;28;20032;-79
2023/03/13 09:30:44;;;;;;;4.90;2.20;;;;;;;14.49;100.00;99811.94;5222622;28;20035;-79
2023/03/13 09:33:17;;;;;;;7.28;2.13;;;;;;;14.41;100.00;99797.84;5228950;28;20400;-79
2023/03/13 09:35:49;;;;;;;6.45;2.53;;;;;;;14.70;100.00;99794.56;5246652;28;20028;-77
2023/03/13 09:38:20;;;;;;;6.18;2.83;;;;;;;14.97;100.00;99783.56;5245472;28;20596;-79
2023/03/13 09:40:53;;;;;;;6.35;2.13;;;;;;;15.18;100.00;99782.34;5224625;28;20099;-79
2023/03/13 09:43:57;;;;;;;6.72;2.08;;;;;;;15.51;100.00;99773.88;5246857;28;20036;-79
2023/03/13 09:47:05;;;;;;;6.15;2.10;;;;;;;15.35;100.00;99777.19;5237586;28;20024;-78
2023/03/13 09:49:38;;;;;;;6.95;2.20;;;;;;;15.40;100.00;99771.94;5217492;28;20024;-78
2023/03/13 09:52:15;;;;;;;5.05;1.63;;;;;;;15.33;100.00;99757.69;5241583;28;20519;-79
2023/03/13 09:55:23;;;;;;;6.63;2.38;;;;;;;15.34;100.00;99765.56;5220237;28;20526;-78
2023/03/13 09:58:03;;;;;;;3.60;1.70;;;;;;;15.27;100.00;99760.22;5228321;28;20051;-79
2023/03/13 10:00:38;;;;;;;6.88;2.15;;;;;;;15.30;100.00;99748.13;5215070;28;20031;-78
2023/03/13 10:03:09;;;;;;;6.43;2.00;;;;;;;15.32;100.00;99745.22;5246354;28;20021;-79
2023/03/13 10:05:54;;;;;;;8.43;1.77;;;;;;;15.26;100.00;99742.38;5246197;28;20076;-79
2023/03/13 10:08:27;;;;;;;4.30;1.77;;;;;;;15.22;100.00;99737.63;5245541;28;20029;-79
2023/03/13 10:11:11;;;;;;;4.15;1.73;;;;;;;15.23;100.00;99745.50;5245316;28;20021;-79
2023/03/13 10:14:14;;;;;;;4.70;1.57;;;;;;;15.28;100.00;99747.53;5233032;28;20513;-79
2023/03/13 10:17:19;;;;;;;5.47;1.40;;;;;;;15.46;100.00;99744.00;5240671;28;20074;-80
2023/03/13 10:19:57;;;;;;;4.60;1.67;;;;;;;15.43;100.00;99733.66;5245662;28;20119;-80
2023/03/13 10:22:30;;;;;;;5.28;1.48;;;;;;;15.59;100.00;99727.66;5212025;28;20021;-80
2023/03/13 10:25:10;;;;;;;3.58;1.50;;;;;;;15.70;100.00;99732.31;5213511;28;20024;-79
2023/03/13 10:27:43;;;;;;;6.38;1.88;;;;;;;15.60;100.00;99725.75;5241857;28;20044;-79
2023/03/13 10:30:23;;;;;;;3.58;1.90;;;;;;;15.74;100.00;99721.88;5217854;28;20112;-79
2023/03/13 10:33:24;;;;;;;4.72;1.52;;;;;;;16.02;100.00;99737.56;5246035;28;20025;-78
2023/03/13 10:36:10;;;;;;;4.47;1.55;;;;;;;16.13;100.00;99708.91;5246314;28;20302;-78
2023/03/13 10:38:53;;;;;;;5.82;1.55;;;;;;;15.94;100.00;99727.03;5244019;28;20021;-78
2023/03/13 10:41:26;;;;;;;6.82;1.67;;;;;;;15.94;100.00;99721.63;5222663;28;20044;-79
2023/03/13 10:44:14;;;;;;;4.85;1.75;;;;;;;15.80;100.00;99713.69;5244190;28;20032;-79
2023/03/13 10:46:48;;;;;;;7.20;1.50;;;;;;;15.82;100.00;99715.34;5225922;28;20025;-80
2023/03/13 10:49:22;;;;;;;4.35;1.90;;;;;;;15.98;100.00;99703.91;5226342;28;20021;-79
2023/03/13 10:51:55;;;;;;;4.63;1.63;;;;;;;15.97;100.00;99697.66;5226090;28;20218;-78
2023/03/13 10:54:29;;;;;;;9.10;1.85;;;;;;;16.12;100.00;99693.72;5244262;28;20393;-79
2023/03/13 10:57:28;;;;;;;5.97;1.50;;;;;;;16.09;100.00;99691.47;5244572;28;20024;-79
2023/03/13 10:59:59;;;;;;;3.00;1.63;;;;;;;15.87;100.00;99688.44;5214062;28;20031;-79
2023/03/13 11:02:34;;;;;;;4.40;1.70;;;;;;;15.98;100.00;99682.25;5245045;28;20107;-79
2023/03/13 11:05:23;;;;;;;6.07;1.50;;;;;;;15.95;100.00;99693.53;5244423;28;20017;-79
2023/03/13 11:07:54;;;;;;;8.95;4.45;;;;;;;16.05;100.00;99675.69;5223054;28;20086;-80
2023/03/13 11:10:29;;;;;;;4.38;2.25;;;;;;;15.94;100.00;99672.94;5223171;28;20124;-79
2023/03/13 11:12:59;;;;;;;5.55;2.45;;;;;;;15.78;100.00;99691.47;5211213;28;20094;-80
2023/03/13 11:15:38;;;;;;;6.07;2.78;;;;;;;15.72;100.00;99689.69;5210917;28;20107;-80
2023/03/13 11:18:32;;;;;;;5.25;1.40;;;;;;;15.57;100.00;99673.00;5244374;28;20055;-80
2023/03/13 11:21:04;;;;;;;7.82;2.13;;;;;;;15.51;100.00;99661.22;5244223;28;20139;-79
2023/03/13 11:23:42;;;;;;;4.03;1.40;;;;;;;15.58;100.00;99671.13;5245485;28;20032;-79
2023/03/13 11:26:35;;;;;;;5.78;2.03;;;;;;;15.69;100.00;99664.97;5244994;28;20035;-80
2023/03/13 11:29:29;;;;;;;5.35;1.55;;;;;;;15.70;100.00;99661.19;5235790;28;20033;-80
2023/03/13 11:32:10;;;;;;;6.78;1.88;;;;;;;16.03;100.00;99647.22;5228774;28;20024;-79
2023/03/13 11:34:50;;;;;;;4.65;2.42;;;;;;;16.39;100.00;99645.41;5245883;28;20070;-80
2023/03/13 11:37:21;;;;;;;3.65;1.70;;;;;;;16.75;100.00;99626.25;5245969;28;20040;-80
2023/03/13 11:40:12;;;;;;;7.03;1.85;;;;;;;16.45;100.00;99630.94;5245695;28;20024;-78
2023/03/13 11:43:03;;;;;;;7.80;1.60;;;;;;;16.48;100.00;99625.88;5245129;28;20060;-80
2023/03/13 11:45:55;;;;;;;4.55;1.30;;;;;;;16.30;100.00;99623.28;5246390;28;20039;-80